createdAt,value
2023-04-12T00:04:44.625Z,99.90
2023-04-12T00:10:38.450Z,99.90
2023-04-12T00:16:33.016Z,99.90
2023-04-12T00:22:28.464Z,99.90
2023-04-12T00:28:22.032Z,99.90
2023-04-12T00:34:17.586Z,99.90
2023-04-12T00:40:12.189Z,99.90
2023-04-12T00:46:05.825Z,99.90
2023-04-12T00:52:04.361Z,99.90
2023-04-12T00:57:57.642Z,99.90
2023-04-12T01:03:52.484Z,99.90
2023-04-12T01:09:54.306Z,99.90
2023-04-12T01:15:56.563Z,99.90
2023-04-12T01:22:13.812Z,99.90
2023-04-12T01:28:13.273Z,99.90
2023-04-12T01:34:07.442Z,99.90
2023-04-12T01:40:01.643Z,99.90
2023-04-12T01:45:56.514Z,99.90
2023-04-12T01:51:57.201Z,99.90
2023-04-12T01:57:53.409Z,99.90
2023-04-12T02:03:50.679Z,99.90
2023-04-12T02:09:44.037Z,99.90
2023-04-12T02:15:38.560Z,99.90
2023-04-12T02:21:42.808Z,99.90
2023-04-12T02:27:36.332Z,99.90
2023-04-12T02:33:31.434Z,99.90
2023-04-12T02:39:29.182Z,99.90
2023-04-12T02:45:24.263Z,99.90
2023-04-12T02:51:19.059Z,99.90
2023-04-12T02:57:17.135Z,99.90
2023-04-12T03:03:14.104Z,99.90
2023-04-12T03:09:08.536Z,99.90
2023-04-12T03:15:03.533Z,99.90
2023-04-12T03:20:57.442Z,99.90
2023-04-12T03:26:52.176Z,99.90
2023-04-12T03:32:51.122Z,99.90
2023-04-12T03:38:45.751Z,99.90
2023-04-12T03:44:39.896Z,99.90
2023-04-12T03:50:44.282Z,99.90
2023-04-12T03:56:45.967Z,99.90
2023-04-12T04:02:47.591Z,99.90
2023-04-12T04:08:44.685Z,99.90
2023-04-12T04:14:39.436Z,99.90
2023-04-12T04:20:36.041Z,99.90
2023-04-12T04:26:33.556Z,99.90
2023-04-12T04:32:53.059Z,99.90
2023-04-12T04:38:49.974Z,99.90
2023-04-12T04:45:04.026Z,99.90
2023-04-12T04:51:03.436Z,99.90
2023-04-12T04:56:56.977Z,99.90
2023-04-12T05:02:52.180Z,99.90
2023-04-12T05:08:52.718Z,99.90
2023-04-12T05:14:51.278Z,99.90
2023-04-12T05:20:48.298Z,99.90
2023-04-12T05:26:41.647Z,99.90
2023-04-12T05:32:41.226Z,99.90
2023-04-12T05:38:36.376Z,99.90
2023-04-12T05:44:37.168Z,99.90
2023-04-12T05:50:31.698Z,99.90
2023-04-12T05:56:26.828Z,99.90
2023-04-12T06:02:20.604Z,99.90
2023-04-12T06:08:15.251Z,99.90
2023-04-12T06:14:11.865Z,99.90
2023-04-12T06:20:08.940Z,99.90
2023-04-12T06:26:03.761Z,99.90
2023-04-12T06:31:58.751Z,99.90
2023-04-12T06:37:52.545Z,99.90
2023-04-12T06:43:46.149Z,99.90
2023-04-12T06:49:41.140Z,99.90
2023-04-12T06:55:34.173Z,99.90
2023-04-12T07:01:27.338Z,99.90
2023-04-12T07:07:21.841Z,99.90
2023-04-12T07:13:15.320Z,99.90
2023-04-12T07:19:09.079Z,99.90
2023-04-12T07:25:05.149Z,99.90
2023-04-12T07:30:58.708Z,99.90
2023-04-12T07:36:51.753Z,99.90
2023-04-12T07:42:46.229Z,99.90
2023-04-12T07:48:39.321Z,99.90
2023-04-12T07:54:32.434Z,99.90
2023-04-12T08:00:27.023Z,99.90
2023-04-12T08:06:20.598Z,99.90
2023-04-12T08:12:14.340Z,99.90
2023-04-12T08:18:08.959Z,99.90
2023-04-12T08:24:02.102Z,99.90
2023-04-12T08:29:55.694Z,99.90
2023-04-12T08:35:50.847Z,99.90
2023-04-12T08:41:44.449Z,98.00
2023-04-12T08:47:41.070Z,96.70
2023-04-12T08:53:36.309Z,97.00
2023-04-12T08:59:30.398Z,93.90
2023-04-12T09:05:30.498Z,92.60
2023-04-12T09:11:26.415Z,92.70
2023-04-12T09:17:25.048Z,89.00
2023-04-12T09:23:20.691Z,90.10
2023-04-12T09:29:26.545Z,90.20
2023-04-12T09:35:20.367Z,90.20
2023-04-12T09:41:26.741Z,90.10
2023-04-12T09:47:22.287Z,87.50
2023-04-12T09:53:18.429Z,89.10
2023-04-12T09:59:13.828Z,87.40
2023-04-12T10:05:10.793Z,85.90
2023-04-12T10:11:04.660Z,81.60
2023-04-12T10:16:59.564Z,84.50
2023-04-12T10:22:55.258Z,77.60
2023-04-12T10:29:24.308Z,76.90
2023-04-12T10:35:17.633Z,81.80
2023-04-12T10:41:18.070Z,86.70
2023-04-12T10:47:12.401Z,87.30
2023-04-12T10:53:27.915Z,91.50
2023-04-12T10:59:27.161Z,82.80
2023-04-12T11:05:27.855Z,84.50
2023-04-12T11:11:36.302Z,91.50
2023-04-12T11:17:33.107Z,99.90
2023-04-12T11:23:27.560Z,99.90
2023-04-12T11:29:25.258Z,99.90
2023-04-12T11:35:24.705Z,99.90
2023-04-12T11:41:18.715Z,99.90
2023-04-12T11:47:17.518Z,99.90
2023-04-12T11:53:13.096Z,99.90
2023-04-12T11:59:07.496Z,99.90
2023-04-12T12:05:01.408Z,99.90
2023-04-12T12:11:07.269Z,99.90
2023-04-12T12:17:02.148Z,99.90
2023-04-12T12:22:55.362Z,99.90
2023-04-12T12:28:53.441Z,99.90
2023-04-12T12:34:53.584Z,1.00
2023-04-12T12:40:47.167Z,1.00
2023-04-12T12:52:38.113Z,1.00
2023-04-12T12:58:31.231Z,1.00
2023-04-12T13:04:26.249Z,1.00
2023-04-12T13:10:19.948Z,1.00
2023-04-12T13:16:13.754Z,1.00
2023-04-12T13:22:08.750Z,1.00
2023-04-12T13:28:02.317Z,1.00
2023-04-12T13:33:55.440Z,1.00
2023-04-12T13:39:51.231Z,1.00
2023-04-12T13:45:44.859Z,1.00
2023-04-12T13:51:38.074Z,1.00
2023-04-12T13:57:32.955Z,1.00
2023-04-12T14:03:26.476Z,1.00
2023-04-12T14:09:26.805Z,1.00
2023-04-12T14:15:21.677Z,1.00
2023-04-12T14:21:14.764Z,1.00
2023-04-12T14:27:08.333Z,1.00
2023-04-12T14:33:03.287Z,1.00
2023-04-12T14:38:57.453Z,1.00
2023-04-12T14:44:50.813Z,1.00
2023-04-12T14:50:45.645Z,1.00
2023-04-12T14:56:45.674Z,1.00
2023-04-12T15:02:44.835Z,1.00
2023-04-12T15:08:43.432Z,1.00
2023-04-12T15:14:37.000Z,1.00
2023-04-12T15:20:30.148Z,1.00
2023-04-12T15:26:24.994Z,1.00
2023-04-12T15:32:18.160Z,1.00
2023-04-12T15:38:15.100Z,1.00
2023-04-12T15:44:13.656Z,1.00
2023-04-12T15:50:08.914Z,1.00
2023-04-12T15:56:04.837Z,1.00
2023-04-12T16:01:59.776Z,1.00
2023-04-12T16:07:53.366Z,1.00
2023-04-12T16:13:48.814Z,1.00
2023-04-12T16:19:43.781Z,1.00
2023-04-12T16:25:37.315Z,1.00
2023-04-12T16:31:31.181Z,1.00
2023-04-12T16:37:26.448Z,1.00
2023-04-12T16:43:19.961Z,1.00
2023-04-12T16:49:13.141Z,1.00
2023-04-12T16:55:10.885Z,1.00
2023-04-12T17:01:04.060Z,1.00
2023-04-12T17:06:57.315Z,1.00
2023-04-12T17:12:54.082Z,1.00
2023-04-12T17:18:47.809Z,1.00
2023-04-12T17:24:41.507Z,1.00
2023-04-12T17:30:36.679Z,1.00
2023-04-12T17:36:32.006Z,1.00
2023-04-12T17:42:25.603Z,1.00
2023-04-12T17:48:20.485Z,1.00
2023-04-12T17:54:14.018Z,1.00
2023-04-12T18:00:09.649Z,1.00
2023-04-12T18:06:07.528Z,1.00
2023-04-12T18:12:01.037Z,1.00
2023-04-12T18:17:54.182Z,1.00
2023-04-12T18:23:48.775Z,1.00
2023-04-12T18:29:42.717Z,1.00
2023-04-12T18:35:36.230Z,1.00
2023-04-12T18:41:30.708Z,1.00
2023-04-12T18:47:23.843Z,1.00
2023-04-12T18:53:17.691Z,1.00
2023-04-12T18:59:17.952Z,1.00
2023-04-12T19:05:14.532Z,1.00
2023-04-12T19:11:08.645Z,1.00
2023-04-12T19:17:04.626Z,1.00
2023-04-12T19:22:58.795Z,1.00
2023-04-12T19:28:55.869Z,1.00
2023-04-12T19:34:51.614Z,1.00
2023-04-12T19:40:45.185Z,1.00
2023-04-12T19:46:39.162Z,1.00
2023-04-12T19:52:34.035Z,15.10
2023-04-12T19:58:27.441Z,36.90
2023-04-12T20:04:22.476Z,64.60
2023-04-12T20:10:17.963Z,64.60
2023-04-12T20:16:11.457Z,13.20
2023-04-12T20:22:07.173Z,1.00
2023-04-12T20:28:03.133Z,1.00
2023-04-12T20:33:57.028Z,1.00
2023-04-12T20:39:51.843Z,1.00
2023-04-12T20:45:46.721Z,1.00
2023-04-12T20:51:40.056Z,1.00
2023-04-12T20:57:33.591Z,1.00
2023-04-12T21:03:29.272Z,1.00
2023-04-12T21:09:24.237Z,1.00
2023-04-12T21:15:21.615Z,1.00
2023-04-12T21:21:16.510Z,1.00
2023-04-12T21:27:10.141Z,1.00
2023-04-12T21:33:04.617Z,1.00
2023-04-12T21:39:00.423Z,1.00
2023-04-12T21:44:54.228Z,1.00
2023-04-12T21:50:48.293Z,1.00
2023-04-12T21:56:43.184Z,1.00
2023-04-12T22:02:37.127Z,1.00
2023-04-12T22:08:31.084Z,1.00
2023-04-12T22:14:26.017Z,1.00
2023-04-12T22:20:19.717Z,1.00
2023-04-12T22:26:14.028Z,1.00
2023-04-12T22:32:09.943Z,1.00
2023-04-12T22:38:04.114Z,1.00
2023-04-12T22:44:02.903Z,1.00
2023-04-12T22:50:02.006Z,1.00
2023-04-12T22:55:55.733Z,1.00
2023-04-12T23:01:49.778Z,1.00
2023-04-12T23:07:45.369Z,1.00
2023-04-12T23:13:38.891Z,1.00
2023-04-12T23:19:33.613Z,1.00
2023-04-12T23:25:39.802Z,1.00
2023-04-12T23:31:33.586Z,1.00
2023-04-12T23:37:27.300Z,1.00
2023-04-12T23:43:22.415Z,1.00
2023-04-12T23:49:15.930Z,1.00
2023-04-12T23:55:10.956Z,1.00
